Time;durP1;ratioP1;P1;durP2;ratioP2;P2;SDS_P1;SDS_P2;PMS_P1;PMS_P2;Temp;Humidity;BMP_temperature;BMP_pressure;BME280_temperature;BME280_humidity;BME280_pressure;Samples;Min_cycle;Max_cycle;Signal;HPM_P1;HPM_P2
2021/11/29 00:00:39;;;;;;;5.00;1.00;;;4.10;99.90;;;;;;5033272;28;38530;-74
2021/11/29 00:03:11;;;;;;;3.00;0.90;;;4.20;99.90;;;;;;5012763;28;38757;-74
2021/11/29 00:05:37;;;;;;;;;;;4.20;99.90;;;;;;5038848;28;38184;-73
2021/11/29 00:08:04;;;;;;;2.20;0.83;;;4.20;99.90;;;;;;5009842;28;41401;-73
2021/11/29 00:10:32;;;;;;;4.07;0.87;;;4.20;99.90;;;;;;5014376;28;38155;-75
2021/11/29 00:12:58;;;;;;;3.80;1.57;;;4.20;99.90;;;;;;5024898;28;38073;-73
2021/11/29 00:15:25;;;;;;;4.73;1.20;;;4.20;99.90;;;;;;5061331;28;36458;-75
2021/11/29 00:17:51;;;;;;;2.43;0.93;;;4.20;99.90;;;;;;5016384;28;40437;-75
2021/11/29 00:20:18;;;;;;;2.07;0.77;;;4.30;99.90;;;;;;5017743;28;39615;-75
2021/11/29 00:22:45;;;;;;;1.83;0.80;;;4.30;99.90;;;;;;5008809;28;37540;-76
2021/11/29 00:25:12;;;;;;;2.23;0.87;;;4.30;99.90;;;;;;5017430;28;37783;-76
2021/11/29 00:27:39;;;;;;;3.93;0.77;;;4.30;99.90;;;;;;5024993;28;38616;-74
2021/11/29 00:30:07;;;;;;;4.60;1.17;;;4.20;99.90;;;;;;5021873;28;38346;-74
2021/11/29 00:32:33;;;;;;;3.20;1.10;;;4.20;99.90;;;;;;5024192;28;47489;-74
2021/11/29 00:34:59;;;;;;;3.57;1.20;;;4.20;99.90;;;;;;5028078;28;38204;-76
2021/11/29 00:37:25;;;;;;;4.67;1.30;;;4.20;99.90;;;;;;5013489;28;38698;-75
2021/11/29 00:39:52;;;;;;;1.50;1.00;;;4.20;99.90;;;;;;5012980;28;38368;-75
2021/11/29 00:42:19;;;;;;;3.63;1.60;;;4.20;99.90;;;;;;5017380;28;37362;-75
2021/11/29 00:44:45;;;;;;;3.53;0.97;;;4.10;99.90;;;;;;5016418;28;37526;-74
2021/11/29 00:47:11;;;;;;;3.07;1.00;;;4.10;99.90;;;;;;5010264;28;39815;-74
2021/11/29 00:49:37;;;;;;;2.57;0.67;;;4.00;99.90;;;;;;5022203;28;38464;-74
2021/11/29 00:52:03;;;;;;;4.60;0.90;;;4.00;99.90;;;;;;5016426;28;37990;-75
2021/11/29 00:54:29;;;;;;;3.00;0.90;;;3.90;99.90;;;;;;5025339;28;36994;-74
2021/11/29 00:56:55;;;;;;;5.07;1.07;;;3.80;99.90;;;;;;5010568;28;39910;-73
2021/11/29 00:59:21;;;;;;;0.80;0.70;;;3.80;99.90;;;;;;5017800;28;38337;-74
2021/11/29 01:01:48;;;;;;;5.27;0.60;;;3.70;99.90;;;;;;5018746;28;38844;-74
2021/11/29 01:04:14;;;;;;;0.93;0.70;;;3.60;99.90;;;;;;5032332;28;38072;-74
2021/11/29 01:06:40;;;;;;;2.17;0.60;;;3.50;99.90;;;;;;5014186;28;38878;-75
2021/11/29 01:09:06;;;;;;;3.67;0.70;;;3.50;99.90;;;;;;5011774;28;41109;-75
2021/11/29 01:11:32;;;;;;;2.60;0.63;;;3.50;99.90;;;;;;5014626;28;37681;-75
2021/11/29 01:13:59;;;;;;;2.00;0.60;;;3.40;99.90;;;;;;5015426;28;36884;-75
2021/11/29 01:16:25;;;;;;;2.33;0.70;;;3.40;99.90;;;;;;5043198;28;39706;-74
2021/11/29 01:18:51;;;;;;;0.93;0.40;;;3.40;99.90;;;;;;5011053;28;39712;-74
2021/11/29 01:21:17;;;;;;;4.83;1.07;;;3.30;99.90;;;;;;5028264;28;37757;-75
2021/11/29 01:23:44;;;;;;;3.40;0.60;;;3.20;99.90;;;;;;5013314;28;37716;-74
2021/11/29 01:26:11;;;;;;;1.30;0.70;;;3.20;99.90;;;;;;5011832;28;40218;-74
2021/11/29 01:28:38;;;;;;;3.93;0.50;;;3.20;99.90;;;;;;5011590;28;38546;-74
2021/11/29 01:31:05;;;;;;;0.40;0.40;;;3.20;99.90;;;;;;5011053;28;37356;-75
2021/11/29 01:33:31;;;;;;;1.63;0.47;;;3.20;99.90;;;;;;5011427;28;36118;-75
2021/11/29 01:35:57;;;;;;;1.30;0.53;;;3.10;99.90;;;;;;5021674;28;38586;-75
2021/11/29 01:38:23;;;;;;;1.53;0.40;;;3.20;99.90;;;;;;5017559;28;38108;-74
2021/11/29 01:40:50;;;;;;;1.07;0.40;;;3.30;99.90;;;;;;5015765;28;39813;-74
2021/11/29 01:43:19;;;;;;;1.10;0.53;;;3.40;99.90;;;;;;5014148;28;36404;-74
2021/11/29 01:45:48;;;;;;;1.77;0.70;;;3.40;99.90;;;;;;5024208;28;39159;-74
2021/11/29 01:48:14;;;;;;;0.97;0.70;;;3.50;99.90;;;;;;5011201;28;37262;-74
2021/11/29 01:50:45;;;;;;;1.23;0.50;;;3.50;99.90;;;;;;5013249;28;38094;-75
2021/11/29 01:53:12;;;;;;;3.80;0.60;;;3.60;99.90;;;;;;5017334;28;37400;-75
2021/11/29 01:55:40;;;;;;;0.67;0.60;;;3.60;99.90;;;;;;5029912;28;37697;-75
2021/11/29 01:58:07;;;;;;;1.03;0.80;;;3.70;99.90;;;;;;5022578;28;38579;-75
2021/11/29 02:00:38;;;;;;;1.23;0.80;;;3.70;99.90;;;;;;5019021;28;37581;-76
2021/11/29 02:03:04;;;;;;;2.93;0.77;;;3.70;99.90;;;;;;5020092;28;37719;-76
2021/11/29 02:05:30;;;;;;;1.83;1.00;;;3.60;99.90;;;;;;5022690;28;39421;-75
2021/11/29 02:07:57;;;;;;;2.00;1.10;;;3.60;99.90;;;;;;5015964;28;37429;-74
2021/11/29 02:10:25;;;;;;;5.13;1.00;;;3.50;99.90;;;;;;5038640;28;39192;-75
2021/11/29 02:12:52;;;;;;;2.47;0.77;;;3.40;99.90;;;;;;5025022;28;36317;-75
2021/11/29 02:15:19;;;;;;;3.17;1.10;;;3.30;99.90;;;;;;5015598;28;38284;-75
2021/11/29 02:17:46;;;;;;;5.03;1.00;;;3.30;99.90;;;;;;5015555;28;38668;-76
2021/11/29 02:20:14;;;;;;;3.30;1.00;;;3.40;99.90;;;;;;5021294;28;37964;-75
2021/11/29 02:22:43;;;;;;;4.00;1.60;;;3.50;99.90;;;;;;5017065;28;36488;-76
2021/11/29 02:25:12;;;;;;;2.00;0.90;;;3.60;99.90;;;;;;5015168;28;38664;-76
2021/11/29 02:27:41;;;;;;;3.90;0.90;;;3.60;99.90;;;;;;5047071;28;36239;-76
2021/11/29 02:30:08;;;;;;;3.40;1.07;;;3.60;99.90;;;;;;5011207;28;36596;-76
2021/11/29 02:32:34;;;;;;;3.43;1.33;;;3.60;99.90;;;;;;5021299;28;35995;-75
2021/11/29 02:35:00;;;;;;;3.53;1.87;;;3.60;99.90;;;;;;5019307;28;38964;-75
2021/11/29 02:37:26;;;;;;;2.23;0.80;;;3.50;99.90;;;;;;5018865;28;38826;-76
2021/11/29 02:39:53;;;;;;;2.60;0.80;;;3.60;99.90;;;;;;5011662;28;38551;-75
2021/11/29 02:42:19;;;;;;;3.07;1.23;;;3.60;99.90;;;;;;5008130;28;37891;-76
2021/11/29 02:44:46;;;;;;;2.80;0.80;;;3.60;99.90;;;;;;5018899;28;38470;-75
2021/11/29 02:47:12;;;;;;;0.97;0.73;;;3.50;99.90;;;;;;5013566;28;39152;-75
2021/11/29 02:49:38;;;;;;;1.87;0.70;;;3.50;99.90;;;;;;5021728;28;39285;-76
2021/11/29 02:52:10;;;;;;;3.00;0.70;;;3.50;99.90;;;;;;5020283;28;38023;-75
2021/11/29 02:54:40;;;;;;;1.75;0.70;;;3.40;99.90;;;;;;5024725;28;38415;-75
2021/11/29 02:57:09;;;;;;;1.37;0.70;;;3.40;99.90;;;;;;5015255;28;38762;-75
2021/11/29 02:59:38;;;;;;;2.30;0.60;;;3.40;99.90;;;;;;5019118;28;39136;-75
2021/11/29 03:02:06;;;;;;;2.33;0.53;;;3.40;99.90;;;;;;5015729;28;38234;-75
2021/11/29 03:04:34;;;;;;;3.00;0.50;;;3.50;99.90;;;;;;5018418;28;39835;-74
2021/11/29 03:07:01;;;;;;;0.97;0.30;;;3.50;99.90;;;;;;5013828;28;38440;-75
2021/11/29 03:09:28;;;;;;;0.30;0.30;;;3.50;99.90;;;;;;5032171;28;48032;-75
2021/11/29 03:11:55;;;;;;;3.00;0.63;;;3.50;99.90;;;;;;5045985;28;38885;-74
2021/11/29 03:14:22;;;;;;;1.77;0.40;;;3.40;99.90;;;;;;5044753;28;38914;-75
2021/11/29 03:16:49;;;;;;;1.67;0.47;;;3.30;99.90;;;;;;5034965;28;39926;-74
2021/11/29 03:19:15;;;;;;;1.57;0.37;;;3.30;99.90;;;;;;5018172;28;37954;-74
2021/11/29 03:21:41;;;;;;;1.57;0.60;;;3.30;99.90;;;;;;5022177;28;35562;-74
2021/11/29 03:24:09;;;;;;;3.23;0.40;;;3.40;99.90;;;;;;5034016;28;39765;-75
2021/11/29 03:26:37;;;;;;;3.27;0.60;;;3.50;99.90;;;;;;5018788;28;38557;-75
2021/11/29 03:29:06;;;;;;;3.37;0.50;;;3.50;99.90;;;;;;5018511;28;38132;-76
2021/11/29 03:31:34;;;;;;;2.93;0.40;;;3.60;99.90;;;;;;5019736;28;37906;-75
2021/11/29 03:34:02;;;;;;;3.20;0.77;;;3.70;99.90;;;;;;5016812;28;38933;-75
2021/11/29 03:36:31;;;;;;;1.70;0.60;;;3.70;99.90;;;;;;5021745;28;47412;-75
2021/11/29 03:38:59;;;;;;;5.00;0.73;;;3.80;99.90;;;;;;5029169;28;38350;-75
2021/11/29 03:41:26;;;;;;;2.73;0.60;;;3.80;99.90;;;;;;5026782;28;37139;-75
2021/11/29 03:43:53;;;;;;;6.97;0.50;;;3.90;99.90;;;;;;5018679;28;38780;-75
2021/11/29 03:46:19;;;;;;;1.43;0.40;;;3.90;99.90;;;;;;5021088;28;38224;-75
2021/11/29 03:48:46;;;;;;;3.50;0.33;;;4.10;99.90;;;;;;5024646;28;38878;-75
2021/11/29 03:51:12;;;;;;;1.50;0.40;;;4.10;99.90;;;;;;5024763;28;38119;-74
2021/11/29 03:53:38;;;;;;;0.80;0.27;;;4.10;99.90;;;;;;5022694;28;39482;-75
2021/11/29 03:56:04;;;;;;;2.03;0.53;;;4.10;99.90;;;;;;5017039;28;38446;-75
2021/11/29 03:58:30;;;;;;;3.53;0.50;;;4.10;99.90;;;;;;5021751;28;38835;-76
2021/11/29 04:00:56;;;;;;;2.90;0.60;;;4.20;99.90;;;;;;5023318;28;38171;-76
2021/11/29 04:03:23;;;;;;;3.87;0.57;;;4.20;99.90;;;;;;5022575;28;40681;-76
2021/11/29 04:05:50;;;;;;;6.47;0.63;;;4.20;99.90;;;;;;5020668;28;39967;-76
2021/11/29 04:08:16;;;;;;;5.47;0.63;;;4.20;99.90;;;;;;5023792;28;39512;-76
2021/11/29 04:10:42;;;;;;;7.27;1.10;;;4.20;99.90;;;;;;5034153;28;38549;-76
2021/11/29 04:13:08;;;;;;;5.40;1.13;;;4.10;99.90;;;;;;5034100;28;39681;-76
2021/11/29 04:15:35;;;;;;;4.80;1.00;;;4.10;99.90;;;;;;5044759;28;39232;-75
2021/11/29 04:18:01;;;;;;;7.03;1.00;;;4.10;99.90;;;;;;5035517;28;38772;-76
2021/11/29 04:20:28;;;;;;;3.90;0.93;;;4.00;99.90;;;;;;5024120;28;48769;-74
2021/11/29 04:22:54;;;;;;;4.23;1.13;;;3.90;99.90;;;;;;5017008;28;39614;-76
2021/11/29 04:25:24;;;;;;;6.27;1.20;;;3.90;99.90;;;;;;5011361;28;38398;-76
2021/11/29 04:27:52;;;;;;;5.20;1.13;;;4.00;99.90;;;;;;5007787;28;38132;-76
2021/11/29 04:30:23;;;;;;;18.10;1.77;;;4.20;99.90;;;;;;5046029;28;36641;-76
2021/11/29 04:32:52;;;;;;;7.37;0.90;;;4.30;99.90;;;;;;5012253;28;39684;-75
2021/11/29 04:35:19;;;;;;;6.47;1.00;;;4.60;99.90;;;;;;5008794;28;38305;-75
2021/11/29 04:37:45;;;;;;;8.53;1.07;;;4.60;99.90;;;;;;5015272;28;37919;-75
2021/11/29 04:40:12;;;;;;;11.03;2.20;;;4.50;99.90;;;;;;5017268;28;37279;-75
2021/11/29 04:42:39;;;;;;;7.63;1.03;;;4.40;99.90;;;;;;5007728;28;40514;-75
2021/11/29 04:45:07;;;;;;;6.80;1.17;;;4.20;99.90;;;;;;5012649;28;38322;-75
2021/11/29 04:47:33;;;;;;;6.73;1.20;;;4.10;99.90;;;;;;5016505;28;38429;-75
2021/11/29 04:49:59;;;;;;;7.63;1.30;;;4.00;99.90;;;;;;5009506;28;37280;-73
2021/11/29 04:52:25;;;;;;;5.60;1.17;;;3.90;99.90;;;;;;5012953;28;38809;-76
2021/11/29 04:54:52;;;;;;;10.47;1.33;;;3.80;99.90;;;;;;5015314;28;39842;-75
2021/11/29 04:57:18;;;;;;;7.03;1.10;;;3.80;99.90;;;;;;5012314;28;39021;-76
2021/11/29 04:59:45;;;;;;;6.03;0.90;;;3.80;99.90;;;;;;5011670;28;38688;-76
2021/11/29 05:02:11;;;;;;;7.83;1.00;;;3.70;99.90;;;;;;5019269;28;38630;-76
2021/11/29 05:04:37;;;;;;;11.80;1.30;;;3.70;99.90;;;;;;5023970;28;39405;-75
2021/11/29 05:07:03;;;;;;;5.37;1.10;;;3.60;99.90;;;;;;5019145;28;39575;-75
2021/11/29 05:09:29;;;;;;;7.87;0.97;;;3.60;99.90;;;;;;5029972;28;37610;-75
2021/11/29 05:11:55;;;;;;;5.60;1.60;;;3.60;99.90;;;;;;5021396;28;40553;-75
2021/11/29 05:14:21;;;;;;;8.80;1.53;;;3.60;99.90;;;;;;5016182;28;38906;-75
2021/11/29 05:16:47;;;;;;;7.43;1.43;;;3.60;99.90;;;;;;5018217;28;37997;-75
2021/11/29 05:19:13;;;;;;;9.07;1.10;;;3.60;99.90;;;;;;5037241;28;38027;-75
2021/11/29 05:21:40;;;;;;;6.80;2.03;;;3.50;99.90;;;;;;5019448;28;38990;-75
2021/11/29 05:24:06;;;;;;;3.17;1.03;;;3.60;99.90;;;;;;5013977;28;39117;-75
2021/11/29 05:26:32;;;;;;;7.97;1.80;;;3.70;99.90;;;;;;5014890;28;38023;-75
2021/11/29 05:29:00;;;;;;;8.23;1.63;;;3.80;99.90;;;;;;5011294;28;37872;-75
2021/11/29 05:31:26;;;;;;;11.40;1.60;;;3.90;99.90;;;;;;5009661;28;39696;-76
2021/11/29 05:33:53;;;;;;;9.77;2.80;;;4.00;99.90;;;;;;5013350;28;39204;-75
2021/11/29 05:36:20;;;;;;;8.90;1.53;;;4.10;99.90;;;;;;5022921;28;38142;-75
2021/11/29 05:38:47;;;;;;;8.57;2.07;;;4.10;99.90;;;;;;5031165;28;37508;-75
2021/11/29 05:41:13;;;;;;;12.60;1.93;;;4.20;99.90;;;;;;5032446;28;37711;-75
2021/11/29 05:43:39;;;;;;;10.73;1.60;;;4.30;99.90;;;;;;5026980;28;40130;-75
2021/11/29 05:46:07;;;;;;;9.43;1.53;;;4.50;99.90;;;;;;5022175;28;38796;-74
2021/11/29 05:48:34;;;;;;;10.17;1.23;;;4.60;99.90;;;;;;5021077;28;38323;-75
2021/11/29 05:51:01;;;;;;;13.30;1.73;;;4.70;99.90;;;;;;5012847;28;39522;-75
2021/11/29 05:53:28;;;;;;;13.63;1.50;;;4.90;99.90;;;;;;5031816;28;47165;-75
2021/11/29 05:55:54;;;;;;;11.77;1.30;;;4.90;99.90;;;;;;5039951;28;38499;-75
2021/11/29 05:58:20;;;;;;;15.87;1.30;;;5.00;99.90;;;;;;5030942;28;37038;-75
2021/11/29 06:00:47;;;;;;;12.50;3.33;;;5.10;99.90;;;;;;5033117;28;38150;-74
2021/11/29 06:03:13;;;;;;;11.97;2.57;;;5.30;99.90;;;;;;5032038;28;38400;-74
2021/11/29 06:05:39;;;;;;;9.13;1.40;;;5.30;99.90;;;;;;5032461;28;38582;-75
2021/11/29 06:08:05;;;;;;;5.07;1.73;;;5.40;99.90;;;;;;5027484;28;37500;-75
2021/11/29 06:10:31;;;;;;;15.20;2.63;;;5.40;99.90;;;;;;5012520;28;38849;-74
2021/11/29 06:12:57;;;;;;;11.83;1.53;;;5.40;99.90;;;;;;5015133;28;39056;-74
2021/11/29 06:15:23;;;;;;;7.13;1.00;;;5.70;99.90;;;;;;5035250;28;38205;-74
2021/11/29 06:17:49;;;;;;;8.97;1.23;;;5.80;99.90;;;;;;5025319;28;38178;-75
2021/11/29 06:20:20;;;;;;;12.67;1.57;;;5.70;99.90;;;;;;5028000;28;38621;-75
2021/11/29 06:22:52;;;;;;;8.53;1.73;;;5.60;99.90;;;;;;5017156;28;39035;-75
2021/11/29 06:25:20;;;;;;;8.10;1.92;;;5.40;99.90;;;;;;5014305;28;38977;-75
2021/11/29 06:27:46;;;;;;;11.03;2.07;;;5.40;99.90;;;;;;5017558;28;38624;-75
2021/11/29 06:30:13;;;;;;;10.53;1.97;;;5.30;99.90;;;;;;5021328;28;41411;-74
2021/11/29 06:32:39;;;;;;;12.63;1.60;;;5.20;99.90;;;;;;5019922;28;38755;-75
2021/11/29 06:35:06;;;;;;;14.20;1.50;;;5.10;99.90;;;;;;5016559;28;38221;-75
2021/11/29 06:37:33;;;;;;;5.93;1.40;;;4.90;99.90;;;;;;5016784;28;37030;-75
2021/11/29 06:40:00;;;;;;;5.83;1.43;;;4.80;99.90;;;;;;5031569;28;37723;-75
2021/11/29 06:42:26;;;;;;;9.43;1.37;;;4.70;99.90;;;;;;5022023;28;37245;-75
2021/11/29 06:44:53;;;;;;;7.80;1.27;;;4.70;99.90;;;;;;5046056;28;38810;-75
2021/11/29 06:47:19;;;;;;;10.33;1.70;;;4.70;99.90;;;;;;5021756;28;37114;-74
2021/11/29 06:49:45;;;;;;;11.40;2.53;;;4.70;99.90;;;;;;5017178;28;38721;-75
2021/11/29 06:52:12;;;;;;;11.10;1.57;;;4.60;99.90;;;;;;5012794;28;39117;-75
2021/11/29 06:54:38;;;;;;;12.47;1.80;;;4.70;99.90;;;;;;5021516;28;36823;-74
2021/11/29 06:57:05;;;;;;;13.77;1.33;;;4.80;99.90;;;;;;5012995;28;36806;-75
2021/11/29 06:59:33;;;;;;;16.33;1.80;;;4.70;99.90;;;;;;5018676;28;38757;-74
2021/11/29 07:02:00;;;;;;;7.60;2.00;;;4.60;99.90;;;;;;5019986;28;37126;-74
2021/11/29 07:04:27;;;;;;;15.83;1.90;;;4.50;99.90;;;;;;5037752;28;38170;-74
2021/11/29 07:06:53;;;;;;;11.73;1.63;;;4.40;99.90;;;;;;5018386;28;37159;-74
2021/11/29 07:09:19;;;;;;;17.57;2.47;;;4.30;99.90;;;;;;5019020;28;39345;-75
2021/11/29 07:11:45;;;;;;;10.53;1.60;;;4.30;99.90;;;;;;5017673;28;37090;-73
2021/11/29 07:14:11;;;;;;;15.37;1.90;;;4.30;99.90;;;;;;5026001;28;37873;-74
2021/11/29 07:16:39;;;;;;;8.53;1.53;;;4.30;99.90;;;;;;5028462;28;37016;-74
2021/11/29 07:19:06;;;;;;;7.93;1.70;;;4.20;99.90;;;;;;5040146;28;39349;-75
2021/11/29 07:21:32;;;;;;;9.30;1.57;;;4.20;99.90;;;;;;5042763;28;37334;-74
2021/11/29 07:23:58;;;;;;;13.23;2.20;;;4.20;99.90;;;;;;5037376;28;37823;-75
2021/11/29 07:26:24;;;;;;;13.10;2.23;;;4.40;99.90;;;;;;5019361;28;38511;-74
2021/11/29 07:28:50;;;;;;;11.03;1.83;;;4.80;99.90;;;;;;5020581;28;37690;-74
2021/11/29 07:31:17;;;;;;;4.97;1.07;;;5.10;99.90;;;;;;5016243;28;40516;-74
2021/11/29 07:33:43;;;;;;;10.73;1.87;;;5.20;99.90;;;;;;5023958;28;38528;-75
2021/11/29 07:36:09;;;;;;;6.07;1.37;;;5.20;99.90;;;;;;5015812;28;37989;-74
2021/11/29 07:38:35;;;;;;;7.83;1.40;;;5.30;99.90;;;;;;5026689;28;40136;-74
2021/11/29 07:41:01;;;;;;;7.97;1.20;;;5.60;99.90;;;;;;5020209;28;38247;-74
2021/11/29 07:43:27;;;;;;;12.73;1.83;;;5.90;99.90;;;;;;5040526;28;38941;-74
2021/11/29 07:45:53;;;;;;;11.53;1.27;;;6.10;99.90;;;;;;5031198;28;38438;-75
2021/11/29 07:48:21;;;;;;;15.77;2.43;;;6.30;99.90;;;;;;5040340;28;39565;-74
2021/11/29 07:50:48;;;;;;;11.27;1.37;;;6.50;99.90;;;;;;5042880;28;38337;-75
2021/11/29 07:53:14;;;;;;;11.97;1.80;;;6.50;99.90;;;;;;5029680;28;37588;-74
2021/11/29 07:55:41;;;;;;;11.87;1.93;;;6.60;99.90;;;;;;5030875;28;37674;-73
2021/11/29 07:58:07;;;;;;;13.57;1.70;;;6.50;99.90;;;;;;5030749;28;39697;-74
2021/11/29 08:00:36;;;;;;;12.00;1.70;;;6.50;99.90;;;;;;5025625;28;37712;-74
2021/11/29 08:03:03;;;;;;;13.37;2.37;;;6.40;99.90;;;;;;5032403;28;38142;-75
2021/11/29 08:05:31;;;;;;;9.77;1.10;;;6.40;99.90;;;;;;5017464;28;37747;-74
2021/11/29 08:07:57;;;;;;;17.00;2.10;;;6.40;99.90;;;;;;5014731;28;38804;-75
2021/11/29 08:10:24;;;;;;;19.13;2.73;;;6.40;99.90;;;;;;5013868;28;40564;-75
2021/11/29 08:12:51;;;;;;;9.50;1.53;;;6.60;99.90;;;;;;5011781;28;39429;-74
2021/11/29 08:15:18;;;;;;;13.47;1.80;;;6.60;99.90;;;;;;5033598;28;38241;-75
2021/11/29 08:17:44;;;;;;;11.60;1.80;;;6.50;99.90;;;;;;5019281;28;38430;-75
2021/11/29 08:20:11;;;;;;;14.83;1.60;;;6.70;99.90;;;;;;5018657;28;40149;-75
2021/11/29 08:22:38;;;;;;;12.57;1.63;;;6.90;99.90;;;;;;5019236;28;37597;-74
2021/11/29 08:25:05;;;;;;;16.17;1.77;;;7.30;99.90;;;;;;5019308;28;37817;-75
2021/11/29 08:27:33;;;;;;;12.20;1.57;;;7.50;99.90;;;;;;5025831;28;47860;-74
2021/11/29 08:30:00;;;;;;;7.17;1.50;;;7.50;99.90;;;;;;5019020;28;39749;-75
2021/11/29 08:32:26;;;;;;;11.63;1.60;;;7.20;99.90;;;;;;5014917;28;38134;-75
2021/11/29 08:34:52;;;;;;;11.47;1.60;;;7.00;99.90;;;;;;5018421;28;37809;-74
2021/11/29 08:37:18;;;;;;;16.20;2.00;;;6.80;99.90;;;;;;5033257;28;39295;-75
2021/11/29 08:39:44;;;;;;;13.67;1.93;;;6.60;99.90;;;;;;5026709;28;38433;-74
2021/11/29 08:42:10;;;;;;;12.93;1.93;;;6.50;99.90;;;;;;5008909;28;37635;-75
2021/11/29 08:44:37;;;;;;;11.37;1.93;;;6.50;99.90;;;;;;5014752;28;37033;-74
2021/11/29 08:47:03;;;;;;;12.33;1.57;;;6.40;99.90;;;;;;5014844;28;39896;-75
2021/11/29 08:49:30;;;;;;;15.27;1.43;;;6.40;99.90;;;;;;5029796;28;38866;-76
2021/11/29 08:51:56;;;;;;;11.00;2.90;;;6.60;99.90;;;;;;5035385;28;37992;-75
2021/11/29 08:54:23;;;;;;;12.73;1.63;;;6.60;99.90;;;;;;5028165;28;37938;-75
2021/11/29 08:56:49;;;;;;;11.77;1.90;;;6.60;99.90;;;;;;5030027;28;38648;-75
2021/11/29 08:59:18;;;;;;;7.60;1.60;;;6.60;99.90;;;;;;5022875;28;39095;-75
2021/11/29 09:01:46;;;;;;;8.20;1.30;;;6.70;99.90;;;;;;5011893;28;20108;-75
2021/11/29 09:04:13;;;;;;;11.77;1.87;;;6.80;99.90;;;;;;5011402;28;38572;-75
2021/11/29 09:06:40;;;;;;;15.40;1.83;;;7.00;99.90;;;;;;5028233;28;39689;-75
2021/11/29 09:09:06;;;;;;;12.27;2.47;;;7.10;99.90;;;;;;5016469;28;38406;-75
2021/11/29 09:11:32;;;;;;;12.03;1.67;;;7.20;99.90;;;;;;5017048;28;38609;-74
2021/11/29 09:13:58;;;;;;;10.93;1.90;;;7.30;99.90;;;;;;5062718;28;37423;-74
2021/11/29 09:16:25;;;;;;;10.73;1.47;;;7.50;99.90;;;;;;5009385;28;38704;-74
2021/11/29 09:18:52;;;;;;;9.67;1.90;;;7.60;99.90;;;;;;5017996;28;39681;-75
2021/11/29 09:21:20;;;;;;;13.33;2.60;;;7.60;99.90;;;;;;5012539;28;39511;-75
2021/11/29 09:23:47;;;;;;;11.43;2.07;;;7.60;99.90;;;;;;5013500;28;37176;-75
2021/11/29 09:26:14;;;;;;;9.23;1.60;;;7.60;99.90;;;;;;5009760;28;40745;-75
2021/11/29 09:28:41;;;;;;;10.73;1.33;;;7.70;99.90;;;;;;5012517;28;39895;-75
2021/11/29 09:31:07;;;;;;;8.90;1.63;;;7.80;99.90;;;;;;5017966;28;38038;-75
2021/11/29 09:33:34;;;;;;;16.50;3.10;;;7.90;99.90;;;;;;5022702;28;37876;-75
2021/11/29 09:36:00;;;;;;;9.07;1.70;;;8.00;99.90;;;;;;5020587;28;40308;-74
2021/11/29 09:38:27;;;;;;;14.23;2.63;;;8.00;99.90;;;;;;5029831;28;47749;-75
2021/11/29 09:40:53;;;;;;;11.00;2.30;;;8.20;99.90;;;;;;5019299;28;39467;-73
2021/11/29 09:43:20;;;;;;;10.23;2.13;;;8.30;99.90;;;;;;5016860;28;37699;-76
2021/11/29 09:45:49;;;;;;;16.20;1.60;;;8.30;99.90;;;;;;5015705;28;40036;-75
2021/11/29 09:48:17;;;;;;;14.33;1.50;;;8.20;99.90;;;;;;5025505;28;38996;-74
2021/11/29 09:50:46;;;;;;;11.33;2.00;;;8.20;99.90;;;;;;5010671;28;38537;-74
2021/11/29 09:53:14;;;;;;;13.53;1.80;;;8.30;99.90;;;;;;5011964;28;37081;-72
2021/11/29 09:55:41;;;;;;;10.57;1.93;;;8.30;99.90;;;;;;5027074;28;38684;-72
2021/11/29 09:58:08;;;;;;;18.73;2.33;;;8.30;99.90;;;;;;5014946;28;39012;-72
2021/11/29 10:00:37;;;;;;;10.97;1.70;;;8.30;99.90;;;;;;5024886;28;39113;-73
2021/11/29 10:03:05;;;;;;;15.47;3.10;;;8.30;99.90;;;;;;5020794;28;38040;-72
2021/11/29 10:05:32;;;;;;;10.17;2.10;;;8.40;99.90;;;;;;5011825;28;39610;-73
2021/11/29 10:07:59;;;;;;;13.07;1.50;;;8.50;99.90;;;;;;5022057;28;38185;-73
2021/11/29 10:10:30;;;;;;;9.37;1.63;;;8.50;99.90;;;;;;5030151;28;40190;-73
2021/11/29 10:13:03;;;;;;;14.75;1.65;;;8.50;99.90;;;;;;5030588;28;35700;-72
2021/11/29 10:15:41;;;;;;;16.02;1.73;;;8.40;99.90;;;;;;5035897;28;47121;-73
2021/11/29 10:18:13;;;;;;;12.40;1.70;;;8.50;99.90;;;;;;5018932;28;37513;-73
2021/11/29 10:20:53;;;;;;;13.27;2.08;;;8.60;99.90;;;;;;5020300;28;39114;-73
2021/11/29 10:23:27;;;;;;;14.47;2.20;;;8.60;99.90;;;;;;5036973;28;38333;-72
2021/11/29 10:25:54;;;;;;;12.50;1.73;;;8.50;99.90;;;;;;5018729;28;39643;-74
2021/11/29 10:28:30;;;;;;;8.03;2.07;;;8.50;99.90;;;;;;5019800;28;38534;-73
2021/11/29 10:31:19;;;;;;;11.43;1.60;;;8.60;99.90;;;;;;5009135;28;37877;-75
2021/11/29 10:34:05;;;;;;;18.70;2.20;;;8.50;99.90;;;;;;5012810;28;47472;-73
2021/11/29 10:36:39;;;;;;;13.43;2.10;;;8.40;99.90;;;;;;5019289;28;47159;-74
2021/11/29 10:39:13;;;;;;;12.30;1.57;;;8.00;99.90;;;;;;5006181;28;38576;-73
2021/11/29 10:41:43;;;;;;;12.67;1.90;;;7.80;99.90;;;;;;5017966;28;39061;-73
2021/11/29 10:44:13;;;;;;;9.07;1.57;;;7.80;99.90;;;;;;5019511;28;38517;-75
2021/11/29 10:46:42;;;;;;;15.37;1.73;;;7.80;99.90;;;;;;5026520;28;38641;-73
2021/11/29 10:49:13;;;;;;;6.33;1.40;;;7.80;99.90;;;;;;5011477;28;38509;-74
2021/11/29 10:51:42;;;;;;;9.70;2.10;;;7.90;99.90;;;;;;5029620;28;37238;-74
2021/11/29 10:54:21;;;;;;;11.37;1.90;;;7.90;99.90;;;;;;5035432;28;38206;-74
2021/11/29 10:56:48;;;;;;;17.83;2.33;;;7.90;99.90;;;;;;5021469;28;40020;-74
2021/11/29 10:59:17;;;;;;;10.77;2.10;;;7.90;99.90;;;;;;5021112;28;38943;-74
2021/11/29 11:01:55;;;;;;;12.07;1.63;;;7.90;99.90;;;;;;5025139;28;37896;-74
2021/11/29 11:04:27;;;;;;;14.93;2.90;;;7.90;99.90;;;;;;5019950;28;38533;-73
2021/11/29 11:07:02;;;;;;;12.25;2.13;;;7.90;99.90;;;;;;5012349;28;38561;-73
2021/11/29 11:09:36;;;;;;;12.03;2.33;;;8.10;99.90;;;;;;5011524;28;46856;-73
2021/11/29 11:12:05;;;;;;;11.10;1.10;;;8.10;99.90;;;;;;5017875;28;38478;-74
2021/11/29 11:14:40;;;;;;;8.10;1.70;;;8.30;99.90;;;;;;5024758;28;37462;-72
2021/11/29 11:17:09;;;;;;;8.93;1.63;;;8.40;99.90;;;;;;5028894;28;38778;-73
2021/11/29 11:19:42;;;;;;;11.27;2.10;;;8.40;99.90;;;;;;5036762;28;39563;-73
2021/11/29 11:22:25;;;;;;;7.10;1.40;;;8.40;99.90;;;;;;5025292;28;38757;-72
2021/11/29 11:24:58;;;;;;;8.83;1.20;;;8.60;99.90;;;;;;5034423;28;37759;-72
2021/11/29 11:27:31;;;;;;;9.60;1.37;;;8.60;99.90;;;;;;5032525;28;39260;-73
2021/11/29 11:29:58;;;;;;;7.43;1.15;;;8.60;99.90;;;;;;5025601;28;38802;-72
2021/11/29 11:32:27;;;;;;;6.43;1.07;;;8.60;99.90;;;;;;5017389;28;38368;-73
2021/11/29 11:35:10;;;;;;;9.27;1.73;;;8.40;99.90;;;;;;5020224;28;37664;-75
2021/11/29 11:37:42;;;;;;;8.20;1.55;;;8.20;99.90;;;;;;5018636;28;47163;-73
2021/11/29 11:40:16;;;;;;;8.75;0.93;;;8.00;99.90;;;;;;5013931;28;39794;-73
2021/11/29 11:42:44;;;;;;;9.80;1.23;;;7.90;99.90;;;;;;5016543;28;38015;-74
2021/11/29 11:45:13;;;;;;;5.33;1.10;;;7.90;99.90;;;;;;5019130;28;37261;-74
2021/11/29 11:47:39;;;;;;;10.63;2.13;;;7.90;99.90;;;;;;5014385;28;39427;-73
2021/11/29 11:50:09;;;;;;;14.77;1.80;;;7.90;99.90;;;;;;5022072;28;38414;-73
2021/11/29 11:52:35;;;;;;;13.07;1.47;;;7.90;99.90;;;;;;5026541;28;39954;-73
2021/11/29 11:55:03;;;;;;;11.33;2.93;;;8.00;99.90;;;;;;5031388;28;37165;-74
2021/11/29 11:57:31;;;;;;;9.67;1.73;;;8.10;99.90;;;;;;5014447;28;37723;-73
2021/11/29 12:00:18;;;;;;;5.77;1.50;;;8.00;99.90;;;;;;5017443;28;39811;-73
2021/11/29 12:02:44;;;;;;;13.37;1.50;;;7.80;99.90;;;;;;5020984;28;48817;-76
2021/11/29 12:05:18;;;;;;;13.03;2.03;;;7.70;99.90;;;;;;5021334;28;37626;-73
2021/11/29 12:07:46;;;;;;;11.00;1.60;;;7.50;99.90;;;;;;5015134;28;39740;-73
2021/11/29 12:10:27;;;;;;;12.97;1.20;;;7.40;99.90;;;;;;5012250;28;40021;-74
2021/11/29 12:13:12;;;;;;;15.93;1.43;;;7.40;99.90;;;;;;5023645;28;38158;-75
2021/11/29 12:15:45;;;;;;;9.50;1.90;;;7.40;99.90;;;;;;5038834;28;48776;-74
2021/11/29 12:18:33;;;;;;;12.33;1.80;;;7.50;99.90;;;;;;5014241;28;40128;-73
2021/11/29 12:21:26;;;;;;;12.57;1.80;;;7.80;99.90;;;;;;5043792;28;38958;-73
2021/11/29 12:24:03;;;;;;;11.90;1.83;;;8.20;99.90;;;;;;5018899;28;47421;-73
2021/11/29 12:26:45;;;;;;;7.87;1.70;;;8.20;99.90;;;;;;5038130;28;47881;-72
2021/11/29 12:29:23;;;;;;;17.00;1.80;;;8.20;99.90;;;;;;5021570;28;38066;-74
2021/11/29 12:31:50;;;;;;;12.20;1.87;;;8.20;99.90;;;;;;5020744;28;37361;-75
2021/11/29 12:34:52;;;;;;;14.80;1.90;;;8.20;99.90;;;;;;5018785;28;37981;-75
2021/11/29 12:37:24;;;;;;;10.03;1.50;;;8.10;99.90;;;;;;5027892;28;37856;-75
2021/11/29 12:40:02;;;;;;;13.90;1.88;;;7.90;99.90;;;;;;5019850;28;39712;-76
2021/11/29 12:42:28;;;;;;;9.00;1.23;;;7.60;99.90;;;;;;5011629;28;48958;-76
2021/11/29 12:45:04;;;;;;;12.13;1.60;;;7.50;99.90;;;;;;5013640;28;37948;-75
2021/11/29 12:47:44;;;;;;;7.93;1.40;;;7.30;99.90;;;;;;5022048;28;47429;-75
2021/11/29 12:50:37;;;;;;;10.60;1.17;;;7.40;99.90;;;;;;5014561;28;39610;-74
2021/11/29 12:53:09;;;;;;;;;;;7.60;99.90;;;;;;5024580;28;38427;-75
2021/11/29 12:55:36;;;;;;;10.73;1.30;;;7.70;99.90;;;;;;5019131;28;38627;-75
2021/11/29 12:58:17;;;;;;;10.63;2.40;;;7.70;99.90;;;;;;5028480;28;36997;-76